KUNI

Details ICAO KUNI
Name Ohio University Snyder Field
Region United States
Timezone America/New_York (UTC-5.0)
Plans Departing 5
Arriving 4
Stats Elevation 766 ft / 233 m (AMSL)
Location 39.211892° -82.229254°
Runways 1
Magnetic Variation 7.520° W
Sunrise 2017-12-12 12:40:42 UTC / 2017-12-12 07:40:42 Local
Sunset 2017-12-12 22:07:40 UTC / 2017-12-12 17:07:40 Local
Advertisement - Login to hide

Runways

ID Width Length Bearing (true) Bearing (mag) Surface Threshold Offset Overrun Length
07 98 ft / 30 m 5,593 ft / 1,705 m 60.60° 68.12° Asphalt 899 ft / 274 m 0 ft / 0 m
25 98 ft / 30 m 5,593 ft / 1,705 m 240.62° 248.14° Asphalt 0 ft / 0 m 0 ft / 0 m

Approach Navaids

Runway Type Ident Frequency Range Bearing (true) Bearing (mag) Slope Elevation
25 Localiser IUNI 108.75 MHz 18 nm / 33 km 240.60° 248.12° - 761 ft / 232 m (AMSL)
25 Glidescope IUNI 108.75 MHz 10 nm / 19 km 240.61° 248.13° 3.00° 757 ft / 231 m (AMSL)

Map

Weather


0- 5 10 15 20 25 30 35+ Temperature / ° C

Clouds and Precipitation
Forecast for 2017-12-12 12:00 UTC. Updated an hour ago

Ground ~20,000 ft ~40,000 ft Winds

METAR

KUNI 121035Z AUTO 28014KT 7SM OVC026 03/00 A2973 RMK AO2 T00291004

TAF

Not found

Frequencies

Recorded 128.32 MHz AWOS 3
Clearance 120.95 MHz CLNC DEL
Unicom 123.07 MHz CTAF/UNICOM
Approach 120.95 MHz HUNTINGTON APP/DEP
Warning: Do not use this data for real-world aviation or navigation. No guarantee of current accuracy is given.